createdAt,value
2023-05-14T00:01:10.054Z,14.99
2023-05-14T00:03:37.641Z,14.97
2023-05-14T00:06:04.513Z,14.91
2023-05-14T00:08:34.142Z,14.90
2023-05-14T00:11:00.719Z,14.87
2023-05-14T00:13:27.404Z,14.88
2023-05-14T00:15:53.993Z,14.90
2023-05-14T00:18:22.962Z,14.92
2023-05-14T00:20:51.601Z,14.90
2023-05-14T00:23:18.166Z,14.85
2023-05-14T00:25:44.686Z,14.73
2023-05-14T00:28:13.381Z,14.71
2023-05-14T00:30:40.097Z,14.67
2023-05-14T00:33:07.471Z,14.60
2023-05-14T00:35:35.928Z,14.58
2023-05-14T00:38:03.502Z,14.58
2023-05-14T00:40:30.454Z,14.54
2023-05-14T00:42:57.127Z,14.50
2023-05-14T00:45:24.841Z,14.52
2023-05-14T00:48:09.671Z,14.48
2023-05-14T00:50:36.487Z,14.40
2023-05-14T00:53:04.132Z,14.39
2023-05-14T00:55:44.436Z,14.43
2023-05-14T00:58:18.231Z,14.41
2023-05-14T01:00:44.973Z,14.42
2023-05-14T01:03:11.700Z,14.40
2023-05-14T01:05:52.700Z,14.39
2023-05-14T01:08:41.222Z,14.39
2023-05-14T01:11:37.442Z,14.34
2023-05-14T01:14:29.038Z,14.33
2023-05-14T01:16:59.674Z,14.29
2023-05-14T01:19:41.772Z,14.22
2023-05-14T01:22:09.085Z,14.18
2023-05-14T01:24:36.168Z,14.23
2023-05-14T01:27:21.856Z,14.21
2023-05-14T01:29:58.142Z,14.18
2023-05-14T01:32:26.287Z,14.18
2023-05-14T01:34:55.408Z,14.15
2023-05-14T01:37:23.716Z,14.14
2023-05-14T01:39:54.159Z,14.14
2023-05-14T01:45:03.501Z,14.01
2023-05-14T01:47:30.079Z,13.97
2023-05-14T01:49:56.735Z,14.00
2023-05-14T01:52:23.569Z,13.97
2023-05-14T01:54:50.225Z,13.97
2023-05-14T01:57:16.863Z,13.96
2023-05-14T01:59:43.556Z,13.96
2023-05-14T02:02:10.226Z,13.95
2023-05-14T02:04:36.814Z,13.95
2023-05-14T02:07:03.458Z,13.93
2023-05-14T02:09:30.739Z,13.91
2023-05-14T02:11:57.292Z,13.86
2023-05-14T02:14:33.093Z,13.87
2023-05-14T02:16:59.747Z,13.86
2023-05-14T02:19:26.445Z,13.86
2023-05-14T02:21:54.154Z,13.84
2023-05-14T02:24:20.950Z,13.83
2023-05-14T02:26:56.697Z,13.80
2023-05-14T02:29:23.308Z,13.75
2023-05-14T02:31:50.002Z,13.72
2023-05-14T02:34:16.777Z,13.67
2023-05-14T02:36:43.447Z,13.60
2023-05-14T02:39:10.282Z,13.56
2023-05-14T02:41:36.880Z,13.57
2023-05-14T02:44:03.463Z,13.57
2023-05-14T02:46:31.336Z,13.58
2023-05-14T02:48:58.400Z,13.52
2023-05-14T02:51:34.286Z,13.53
2023-05-14T02:54:00.913Z,13.53
2023-05-14T02:56:27.606Z,13.56
2023-05-14T02:58:57.409Z,13.54
2023-05-14T03:01:26.546Z,13.54
2023-05-14T03:03:53.743Z,13.50
2023-05-14T03:06:20.363Z,13.43
2023-05-14T03:08:46.979Z,13.42
2023-05-14T03:14:24.521Z,13.48
2023-05-14T03:16:54.969Z,13.41
2023-05-14T03:19:21.700Z,13.34
2023-05-14T03:21:50.064Z,13.33
2023-05-14T03:24:16.677Z,13.30
2023-05-14T03:26:43.337Z,13.31
2023-05-14T03:29:25.183Z,13.33
2023-05-14T03:32:04.490Z,13.23
2023-05-14T03:34:31.141Z,13.26
2023-05-14T03:37:06.945Z,13.25
2023-05-14T03:39:33.812Z,13.22
2023-05-14T03:42:07.002Z,13.24
2023-05-14T03:44:33.624Z,13.28
2023-05-14T03:47:00.376Z,13.28
2023-05-14T03:49:36.111Z,13.26
2023-05-14T03:52:22.874Z,13.18
2023-05-14T03:55:07.433Z,13.25
2023-05-14T03:57:34.163Z,13.24
2023-05-14T04:00:16.829Z,13.24
2023-05-14T04:02:54.544Z,13.24
2023-05-14T04:05:21.369Z,13.22
2023-05-14T04:07:48.016Z,13.23
2023-05-14T04:10:14.696Z,13.21
2023-05-14T04:12:41.484Z,13.13
2023-05-14T04:15:08.889Z,13.04
2023-05-14T04:17:35.550Z,13.07
2023-05-14T04:20:27.521Z,13.06
2023-05-14T04:22:54.229Z,13.07
2023-05-14T04:25:20.893Z,13.04
2023-05-14T04:27:47.571Z,13.04
2023-05-14T04:30:14.262Z,13.04
2023-05-14T04:32:40.973Z,13.01
2023-05-14T04:35:09.306Z,13.06
2023-05-14T04:37:36.229Z,13.11
2023-05-14T04:40:02.837Z,13.17
2023-05-14T04:42:29.466Z,13.21
2023-05-14T04:44:56.069Z,13.20
2023-05-14T04:47:22.730Z,13.22
2023-05-14T04:49:49.405Z,13.27
2023-05-14T04:52:16.102Z,13.29
2023-05-14T04:54:42.733Z,13.33
2023-05-14T04:57:09.420Z,13.36
2023-05-14T04:59:36.062Z,13.38
2023-05-14T05:02:02.725Z,13.42
2023-05-14T05:04:29.409Z,13.44
2023-05-14T05:06:56.014Z,13.46
2023-05-14T05:09:22.661Z,13.48
2023-05-14T05:11:49.364Z,13.56
2023-05-14T05:14:16.035Z,13.57
2023-05-14T05:16:51.398Z,13.58
2023-05-14T05:19:18.849Z,13.56
2023-05-14T05:21:47.603Z,13.58
2023-05-14T05:24:14.309Z,13.61
2023-05-14T05:26:43.590Z,13.64
2023-05-14T05:29:10.279Z,13.64
2023-05-14T05:31:37.018Z,13.70
2023-05-14T05:34:04.018Z,13.75
2023-05-14T05:36:31.074Z,13.74
2023-05-14T05:38:57.630Z,13.76
2023-05-14T05:41:24.262Z,13.78
2023-05-14T05:43:50.982Z,13.84
2023-05-14T05:46:17.585Z,13.89
2023-05-14T05:48:44.353Z,13.85
2023-05-14T05:51:11.479Z,13.89
2023-05-14T05:53:38.040Z,13.88
2023-05-14T05:56:04.862Z,13.87
2023-05-14T05:58:31.492Z,13.89
2023-05-14T06:00:58.279Z,13.88
2023-05-14T06:03:25.109Z,13.92
2023-05-14T06:05:52.755Z,13.91
2023-05-14T06:08:19.438Z,13.88
2023-05-14T06:10:47.651Z,13.87
2023-05-14T06:13:14.596Z,14.08
2023-05-14T06:15:41.401Z,14.27
2023-05-14T06:18:08.134Z,14.28
2023-05-14T06:20:41.431Z,14.32
2023-05-14T06:23:08.493Z,14.40
2023-05-14T06:25:35.167Z,14.37
2023-05-14T06:28:01.721Z,14.44
2023-05-14T06:30:28.377Z,14.55
2023-05-14T06:32:55.212Z,14.82
2023-05-14T06:35:21.879Z,14.88
2023-05-14T06:37:48.523Z,14.88
2023-05-14T06:40:16.225Z,14.92
2023-05-14T06:42:42.800Z,15.18
2023-05-14T06:45:09.816Z,15.32
2023-05-14T06:47:36.659Z,15.23
2023-05-14T06:56:15.156Z,15.22
2023-05-14T06:58:41.765Z,15.26
2023-05-14T07:01:08.427Z,15.50
2023-05-14T07:03:36.317Z,15.77
2023-05-14T07:06:03.005Z,15.98
2023-05-14T07:11:33.045Z,15.70
2023-05-14T07:14:03.032Z,15.47
2023-05-14T07:32:53.522Z,16.12
2023-05-14T07:35:23.154Z,16.27
2023-05-14T07:38:12.491Z,16.42
2023-05-14T07:40:49.259Z,16.55
2023-05-14T07:43:15.941Z,16.70
2023-05-14T07:46:17.899Z,16.88
2023-05-14T07:48:44.591Z,16.83
2023-05-14T07:53:59.642Z,16.92
2023-05-14T08:04:27.209Z,17.01
2023-05-14T08:07:57.774Z,17.04
2023-05-14T08:10:26.294Z,16.96
2023-05-14T08:13:21.649Z,16.91
2023-05-14T08:18:34.693Z,16.89
2023-05-14T08:21:03.927Z,16.92
2023-05-14T08:23:35.665Z,16.94
2023-05-14T08:26:02.927Z,17.00
2023-05-14T08:32:23.399Z,17.26
2023-05-14T08:34:56.081Z,17.24
2023-05-14T08:37:46.649Z,17.21
2023-05-14T08:40:16.365Z,17.26
2023-05-14T08:42:46.005Z,17.29
2023-05-14T08:45:52.143Z,17.31
2023-05-14T08:51:16.765Z,17.46
2023-05-14T08:53:55.375Z,17.51
2023-05-14T08:57:28.275Z,17.58
2023-05-14T08:59:57.451Z,17.60
2023-05-14T09:02:28.182Z,17.57
2023-05-14T09:10:23.175Z,17.47
2023-05-14T09:13:28.322Z,17.60
2023-05-14T09:19:08.218Z,17.57
2023-05-14T09:24:44.871Z,17.75
2023-05-14T09:27:20.839Z,17.88
2023-05-14T09:29:48.386Z,17.92
2023-05-14T09:32:26.989Z,17.94
2023-05-14T09:35:18.147Z,17.94
2023-05-14T09:37:47.093Z,18.00
2023-05-14T09:40:15.683Z,18.07
2023-05-14T09:42:53.068Z,18.11
2023-05-14T09:45:24.074Z,18.19
2023-05-14T09:48:04.132Z,18.18
2023-05-14T09:50:30.814Z,18.24
2023-05-14T09:52:59.073Z,18.27
2023-05-14T09:55:26.189Z,18.40
2023-05-14T09:57:52.754Z,18.57
2023-05-14T10:00:20.183Z,18.71
2023-05-14T10:02:47.764Z,18.77
2023-05-14T10:06:45.725Z,18.83
2023-05-14T10:09:16.916Z,18.93
2023-05-14T10:15:07.179Z,19.08
2023-05-14T10:17:36.301Z,19.16
2023-05-14T10:20:07.790Z,19.29
2023-05-14T10:22:52.663Z,19.44
2023-05-14T10:25:19.597Z,19.50
2023-05-14T10:28:09.470Z,19.54
2023-05-14T10:30:36.164Z,19.65
2023-05-14T10:33:08.796Z,19.81
2023-05-14T10:36:00.803Z,19.99
2023-05-14T10:38:58.785Z,20.20
2023-05-14T10:41:28.320Z,20.26
2023-05-14T10:43:57.655Z,20.18
2023-05-14T10:46:43.797Z,20.30
2023-05-14T10:49:11.500Z,20.40
2023-05-14T10:51:38.195Z,20.50
2023-05-14T10:54:08.355Z,20.65
2023-05-14T10:56:37.262Z,20.68
2023-05-14T10:59:10.129Z,20.72
2023-05-14T11:01:37.002Z,20.70
2023-05-14T11:04:19.710Z,20.57
2023-05-14T11:07:09.486Z,20.69
2023-05-14T11:09:38.027Z,20.86
2023-05-14T11:12:05.292Z,20.90
2023-05-14T11:14:32.031Z,20.96
2023-05-14T11:17:16.639Z,21.17
2023-05-14T11:19:45.008Z,21.22
2023-05-14T11:22:14.593Z,21.20
2023-05-14T11:24:45.379Z,21.21
2023-05-14T11:33:40.181Z,21.41
2023-05-14T11:54:01.377Z,21.42
2023-05-14T11:56:28.076Z,21.40
2023-05-14T11:59:59.341Z,21.40
2023-05-14T12:02:29.159Z,21.53
2023-05-14T12:04:56.072Z,21.49
2023-05-14T12:07:56.238Z,21.62
2023-05-14T12:10:53.232Z,21.83
2023-05-14T12:24:55.139Z,22.02
2023-05-14T13:00:18.664Z,22.41
2023-05-14T13:02:45.400Z,22.38
2023-05-14T13:07:59.750Z,22.33
2023-05-14T13:10:26.539Z,22.29
2023-05-14T13:12:53.233Z,22.32
2023-05-14T13:15:19.850Z,22.35
2023-05-14T13:17:46.644Z,22.33
2023-05-14T13:20:13.369Z,22.32
2023-05-14T13:22:43.047Z,22.28
2023-05-14T13:25:10.064Z,22.35
2023-05-14T13:27:37.073Z,22.36
2023-05-14T13:32:47.644Z,22.38
2023-05-14T13:35:14.430Z,22.37
2023-05-14T13:41:58.407Z,22.38
2023-05-14T13:44:25.152Z,22.38
2023-05-14T13:46:51.986Z,22.41
2023-05-14T13:49:18.975Z,22.48
2023-05-14T13:51:45.860Z,22.46
2023-05-14T13:54:13.882Z,22.44
2023-05-14T13:56:40.548Z,22.40
2023-05-14T13:59:07.472Z,22.36
2023-05-14T14:01:34.309Z,22.34
2023-05-14T14:04:01.058Z,22.26
2023-05-14T14:06:33.916Z,22.30
2023-05-14T14:09:00.774Z,22.34
2023-05-14T14:11:27.767Z,22.36
2023-05-14T14:13:54.553Z,22.28
2023-05-14T14:16:21.337Z,22.16
2023-05-14T14:18:47.981Z,22.15
2023-05-14T14:21:33.468Z,22.21
2023-05-14T14:24:00.143Z,22.19
2023-05-14T14:26:46.305Z,22.21
2023-05-14T14:29:12.991Z,22.18
2023-05-14T14:31:39.744Z,22.21
2023-05-14T14:34:06.336Z,22.15
2023-05-14T14:36:32.985Z,22.11
2023-05-14T14:38:59.656Z,22.05
2023-05-14T14:41:27.462Z,22.09
2023-05-14T14:43:54.045Z,22.11
2023-05-14T14:46:29.840Z,22.18
2023-05-14T14:48:56.434Z,22.16
2023-05-14T14:51:23.132Z,22.17
2023-05-14T14:53:49.802Z,21.94
2023-05-14T14:56:16.597Z,21.97
2023-05-14T14:58:50.525Z,22.07
2023-05-14T15:01:17.249Z,22.03
2023-05-14T15:03:45.665Z,22.06
2023-05-14T15:06:13.691Z,22.10
2023-05-14T15:08:40.541Z,22.11
2023-05-14T15:11:08.236Z,22.16
2023-05-14T15:13:34.874Z,22.11
2023-05-14T15:16:01.525Z,22.07
2023-05-14T15:18:28.187Z,22.02
2023-05-14T15:20:55.877Z,21.93
2023-05-14T15:23:22.428Z,21.89
2023-05-14T15:25:51.603Z,21.91
2023-05-14T15:28:50.960Z,21.93
2023-05-14T15:31:08.264Z,21.90
2023-05-14T15:33:36.015Z,21.83
2023-05-14T15:36:02.773Z,21.81
2023-05-14T15:38:36.720Z,21.77
2023-05-14T15:41:03.889Z,21.75
2023-05-14T15:43:39.786Z,21.75
2023-05-14T15:46:28.088Z,21.73
2023-05-14T15:48:54.693Z,21.67
2023-05-14T15:51:25.809Z,21.54
2023-05-14T15:53:54.265Z,21.53
2023-05-14T15:56:22.296Z,21.47
2023-05-14T15:58:49.431Z,21.38
2023-05-14T16:01:16.186Z,21.31
2023-05-14T16:03:48.104Z,21.33
2023-05-14T16:06:20.037Z,21.37
2023-05-14T16:08:46.594Z,21.41
2023-05-14T16:11:13.179Z,21.44
2023-05-14T16:13:41.526Z,21.40
2023-05-14T16:16:08.299Z,21.31
2023-05-14T16:18:35.107Z,21.30
2023-05-14T16:21:04.845Z,21.26
2023-05-14T16:23:31.429Z,21.24
2023-05-14T16:25:57.988Z,21.23
2023-05-14T16:28:25.813Z,21.12
2023-05-14T16:30:52.431Z,21.09
2023-05-14T16:33:19.069Z,21.08
2023-05-14T16:35:45.704Z,20.97
2023-05-14T16:38:15.501Z,20.84
2023-05-14T16:40:42.178Z,20.82
2023-05-14T16:43:08.884Z,20.70
2023-05-14T16:45:37.310Z,20.66
2023-05-14T16:48:05.050Z,20.66
2023-05-14T16:50:31.860Z,20.55
2023-05-14T16:52:59.537Z,20.47
2023-05-14T16:55:26.489Z,20.44
2023-05-14T16:57:53.055Z,20.43
2023-05-14T17:00:19.783Z,20.45
2023-05-14T17:02:49.133Z,20.39
2023-05-14T17:05:16.365Z,20.37
2023-05-14T17:07:42.946Z,20.32
2023-05-14T17:10:12.330Z,20.28
2023-05-14T17:12:40.103Z,20.19
2023-05-14T17:15:07.572Z,20.07
2023-05-14T17:17:34.464Z,19.95
2023-05-14T17:20:01.130Z,19.86
2023-05-14T17:22:27.814Z,19.78
2023-05-14T17:24:54.579Z,19.72
2023-05-14T17:27:21.222Z,19.65
2023-05-14T17:29:51.029Z,19.56
2023-05-14T17:32:18.645Z,19.46
2023-05-14T17:34:45.344Z,19.44
2023-05-14T17:37:12.080Z,19.36
2023-05-14T17:39:39.042Z,19.28
2023-05-14T17:42:07.459Z,19.24
2023-05-14T17:44:34.042Z,19.18
2023-05-14T17:47:00.910Z,19.06
2023-05-14T17:49:27.754Z,18.98
2023-05-14T17:51:54.464Z,18.90
2023-05-14T17:54:22.086Z,18.82
2023-05-14T17:56:50.972Z,18.73
2023-05-14T17:59:17.811Z,18.60
2023-05-14T18:01:44.606Z,18.62
2023-05-14T18:04:11.375Z,18.66
2023-05-14T18:06:38.157Z,18.67
2023-05-14T18:09:04.775Z,18.62
2023-05-14T18:11:33.979Z,18.54
2023-05-14T18:14:01.231Z,18.41
2023-05-14T18:16:28.207Z,18.27
2023-05-14T18:18:56.315Z,18.28
2023-05-14T18:21:23.174Z,18.27
2023-05-14T18:23:50.921Z,18.27
2023-05-14T18:26:17.843Z,18.17
2023-05-14T18:38:23.316Z,17.86
2023-05-14T18:40:55.004Z,17.78
2023-05-14T18:43:21.601Z,17.74
2023-05-14T18:45:50.891Z,17.68
2023-05-14T18:48:17.634Z,17.65
2023-05-14T18:50:44.226Z,17.54
2023-05-14T18:53:12.855Z,17.52
2023-05-14T18:55:39.448Z,17.54
2023-05-14T18:58:06.176Z,17.43
2023-05-14T19:00:32.949Z,17.37
2023-05-14T19:02:59.649Z,17.39
2023-05-14T19:05:26.643Z,17.32
2023-05-14T19:07:53.521Z,17.26
2023-05-14T19:10:20.085Z,17.25
2023-05-14T19:12:47.498Z,17.19
2023-05-14T19:15:14.391Z,17.08
2023-05-14T19:17:42.053Z,17.02
2023-05-14T19:20:09.504Z,17.01
2023-05-14T19:22:36.198Z,16.94
2023-05-14T19:25:03.725Z,16.83
2023-05-14T19:27:36.467Z,16.75
2023-05-14T19:30:03.208Z,16.76
2023-05-14T19:32:29.866Z,16.73
2023-05-14T19:34:58.973Z,16.71
2023-05-14T19:37:26.273Z,16.59
2023-05-14T19:39:52.957Z,16.53
2023-05-14T19:42:19.628Z,16.45
2023-05-14T19:44:48.355Z,16.40
2023-05-14T19:47:15.101Z,16.42
2023-05-14T19:49:41.828Z,16.32
2023-05-14T19:52:08.506Z,16.25
2023-05-14T19:54:35.099Z,16.22
2023-05-14T19:57:01.709Z,16.18
2023-05-14T19:59:29.826Z,16.10
2023-05-14T20:01:56.509Z,16.04
2023-05-14T20:04:23.313Z,16.00
2023-05-14T20:06:50.010Z,16.01
2023-05-14T20:09:18.687Z,16.03
2023-05-14T20:11:45.236Z,15.93
2023-05-14T20:14:11.842Z,15.92
2023-05-14T20:16:38.486Z,15.88
2023-05-14T20:19:05.274Z,15.85
2023-05-14T20:21:31.967Z,15.88
2023-05-14T20:23:58.661Z,15.80
2023-05-14T20:26:25.343Z,15.80
2023-05-14T20:28:52.026Z,15.81
2023-05-14T20:31:19.245Z,15.78
2023-05-14T20:33:45.941Z,15.73
2023-05-14T20:36:15.110Z,15.76
2023-05-14T20:38:41.879Z,15.71
2023-05-14T20:41:09.667Z,15.64
2023-05-14T20:43:36.333Z,15.63
2023-05-14T20:46:03.067Z,15.65
2023-05-14T20:48:29.686Z,15.64
2023-05-14T20:50:56.331Z,15.64
2023-05-14T20:53:22.927Z,15.59
2023-05-14T20:55:49.507Z,15.56
2023-05-14T20:58:16.180Z,15.51
2023-05-14T21:00:43.453Z,15.50
2023-05-14T21:03:10.176Z,15.50
2023-05-14T21:05:37.028Z,15.48
2023-05-14T21:08:03.632Z,15.46
2023-05-14T21:10:30.295Z,15.45
2023-05-14T21:12:56.910Z,15.42
2023-05-14T21:15:23.942Z,15.33
2023-05-14T21:17:50.642Z,15.32
2023-05-14T21:20:17.457Z,15.26
2023-05-14T21:22:44.028Z,15.26
2023-05-14T21:25:11.107Z,15.25
2023-05-14T21:27:37.770Z,15.23
2023-05-14T21:30:04.849Z,15.21
2023-05-14T21:32:31.422Z,15.21
2023-05-14T21:35:00.112Z,15.19
2023-05-14T21:37:26.797Z,15.17
2023-05-14T21:39:53.406Z,15.09
2023-05-14T21:42:21.089Z,15.06
2023-05-14T21:44:47.778Z,15.05
2023-05-14T21:47:15.960Z,15.02
2023-05-14T21:49:43.099Z,15.03
2023-05-14T21:52:09.755Z,15.02
2023-05-14T21:54:36.399Z,14.99
2023-05-14T21:57:03.226Z,14.97
2023-05-14T21:59:29.774Z,14.93
2023-05-14T22:02:07.040Z,14.87
2023-05-14T22:04:34.102Z,14.81
2023-05-14T22:07:00.963Z,14.77
2023-05-14T22:09:27.693Z,14.73
2023-05-14T22:11:54.314Z,14.70
2023-05-14T22:14:20.973Z,14.71
2023-05-14T22:16:47.630Z,14.72
2023-05-14T22:19:16.461Z,14.73
2023-05-14T22:21:43.152Z,14.72
2023-05-14T22:24:09.750Z,14.71
2023-05-14T22:26:36.366Z,14.70
2023-05-14T22:29:02.942Z,14.68
2023-05-14T22:31:30.008Z,14.64
2023-05-14T22:33:56.716Z,14.64
2023-05-14T22:36:23.423Z,14.60
2023-05-14T22:38:49.979Z,14.62
2023-05-14T22:41:17.595Z,14.61
2023-05-14T22:43:44.357Z,14.57
2023-05-14T22:46:11.059Z,14.50
2023-05-14T22:48:37.610Z,14.50
2023-05-14T22:51:04.288Z,14.50
2023-05-14T22:53:30.952Z,14.50
2023-05-14T22:55:57.482Z,14.45
2023-05-14T22:58:24.264Z,14.45
2023-05-14T23:00:59.866Z,14.45
2023-05-14T23:03:29.050Z,14.47
2023-05-14T23:05:55.734Z,14.43
2023-05-14T23:08:22.340Z,14.44
2023-05-14T23:10:48.909Z,14.40
2023-05-14T23:13:15.505Z,14.37
2023-05-14T23:15:43.976Z,14.36
2023-05-14T23:18:10.797Z,14.38
2023-05-14T23:20:37.533Z,14.41
2023-05-14T23:23:04.196Z,14.39
2023-05-14T23:25:32.386Z,14.38
2023-05-14T23:27:59.115Z,14.37
2023-05-14T23:30:25.813Z,14.38
2023-05-14T23:32:52.429Z,14.37
2023-05-14T23:35:19.057Z,14.40
2023-05-14T23:37:47.470Z,14.39
2023-05-14T23:40:14.323Z,14.39
2023-05-14T23:42:41.183Z,14.42
2023-05-14T23:45:09.525Z,14.43
2023-05-14T23:47:36.203Z,14.41
2023-05-14T23:50:03.299Z,14.40
2023-05-14T23:52:29.792Z,14.37
2023-05-14T23:54:56.362Z,14.31
2023-05-14T23:57:22.980Z,14.30
2023-05-14T23:59:49.625Z,14.22
